Time;durP1;ratioP1;P1;durP2;ratioP2;P2;SDS_P1;SDS_P2;PMS_P1;PMS_P2;Temp;Humidity;BMP_temperature;BMP_pressure;BME280_temperature;BME280_humidity;BME280_pressure;Samples;Min_cycle;Max_cycle;Signal;HPM_P1;HPM_P2
2023/05/01 00:00:08;;;;;;;4.03;1.23;;;11.80;99.90;;;;;;4984265;28;20033;-71
2023/05/01 00:02:35;;;;;;;4.50;1.80;;;11.80;99.90;;;;;;4989746;28;20031;-70
2023/05/01 00:05:02;;;;;;;3.42;1.55;;;11.80;99.90;;;;;;4983735;28;20121;-71
2023/05/01 00:07:29;;;;;;;3.58;1.33;;;11.80;99.90;;;;;;4989420;28;20089;-71
2023/05/01 00:09:56;;;;;;;2.58;1.30;;;11.80;99.90;;;;;;4967766;28;20027;-71
2023/05/01 00:12:23;;;;;;;1.42;0.90;;;11.70;99.90;;;;;;4989539;28;20023;-71
2023/05/01 00:14:49;;;;;;;2.60;1.48;;;11.70;99.90;;;;;;4983885;28;20100;-71
2023/05/01 00:17:15;;;;;;;2.00;1.00;;;11.70;99.90;;;;;;4989309;28;20030;-71
2023/05/01 00:19:41;;;;;;;2.47;1.20;;;11.80;99.90;;;;;;4983495;28;20490;-71
2023/05/01 00:22:07;;;;;;;1.45;0.93;;;11.70;99.90;;;;;;4988989;28;20058;-71
2023/05/01 00:24:32;;;;;;;1.10;0.80;;;11.80;99.90;;;;;;4968575;28;20053;-72
2023/05/01 00:26:58;;;;;;;1.85;1.02;;;11.80;99.90;;;;;;4972657;28;20043;-72
2023/05/01 00:29:24;;;;;;;2.25;0.90;;;11.90;99.90;;;;;;4983274;28;20038;-72
2023/05/01 00:31:50;;;;;;;1.27;0.90;;;11.90;99.90;;;;;;4988837;28;20156;-72
2023/05/01 00:34:16;;;;;;;1.08;0.55;;;11.90;99.90;;;;;;4968504;28;20066;-72
2023/05/01 00:36:42;;;;;;;7.88;1.20;;;12.00;99.90;;;;;;4973630;28;20109;-72
2023/05/01 00:39:08;;;;;;;1.42;0.80;;;12.10;99.90;;;;;;4968548;28;20027;-72
2023/05/01 00:41:37;;;;;;;0.75;0.43;;;12.30;99.90;;;;;;4988529;28;20397;-72
2023/05/01 00:44:03;;;;;;;0.85;0.68;;;12.40;99.90;;;;;;4968117;28;20038;-72
2023/05/01 00:46:30;;;;;;;1.42;0.80;;;12.50;99.90;;;;;;4988554;28;20041;-72
2023/05/01 00:48:57;;;;;;;1.63;0.90;;;12.60;99.90;;;;;;4967332;28;20407;-72
2023/05/01 00:51:26;;;;;;;1.50;0.90;;;12.60;99.90;;;;;;4988573;28;20030;-72
2023/05/01 00:53:52;;;;;;;2.13;0.98;;;12.60;99.90;;;;;;4983245;28;20422;-72
2023/05/01 00:56:20;;;;;;;1.75;0.90;;;12.70;99.90;;;;;;4988220;28;20471;-72
2023/05/01 00:58:52;;;;;;;0.63;0.47;;;12.80;99.90;;;;;;4967803;28;20402;-72
2023/05/01 01:01:20;;;;;;;1.95;0.75;;;12.70;99.90;;;;;;4987350;28;20041;-72
2023/05/01 01:03:47;;;;;;;1.67;0.75;;;12.80;99.90;;;;;;4982180;28;20035;-72
2023/05/01 01:06:30;;;;;;;1.40;0.98;;;12.80;99.90;;;;;;4959279;28;20059;-72
2023/05/01 01:09:14;;;;;;;1.60;0.95;;;12.70;99.90;;;;;;4959089;28;20023;-72
2023/05/01 01:12:01;;;;;;;1.10;0.70;;;12.70;99.90;;;;;;4967255;28;20038;-72
2023/05/01 01:14:39;;;;;;;3.15;0.63;;;12.70;99.90;;;;;;4967415;28;20626;-72
2023/05/01 01:17:45;;;;;;;2.00;0.85;;;12.60;99.90;;;;;;4979161;28;20031;-72
2023/05/01 01:20:49;;;;;;;0.75;0.60;;;12.70;99.90;;;;;;4967559;28;20379;-71
2023/05/01 01:24:06;;;;;;;1.35;1.08;;;12.60;99.90;;;;;;4949175;28;20064;-72
2023/05/01 01:26:49;;;;;;;1.83;1.00;;;12.60;99.90;;;;;;4963744;28;20123;-72
2023/05/01 01:29:38;;;;;;;1.40;0.88;;;12.60;99.90;;;;;;4966296;28;20027;-72
2023/05/01 01:32:15;;;;;;;1.40;0.90;;;12.60;99.90;;;;;;4986284;28;20030;-72
2023/05/01 01:34:53;;;;;;;1.23;0.75;;;12.50;99.90;;;;;;4967520;28;20187;-73
2023/05/01 01:37:31;;;;;;;1.98;1.35;;;12.50;99.90;;;;;;4958914;28;20042;-72
2023/05/01 01:40:06;;;;;;;1.23;0.90;;;12.60;99.90;;;;;;4981365;28;20043;-72
2023/05/01 01:42:50;;;;;;;1.58;0.80;;;12.60;99.90;;;;;;4984650;28;20046;-72
2023/05/01 01:45:24;;;;;;;2.60;1.33;;;12.60;99.90;;;;;;4982183;28;20043;-72
2023/05/01 01:47:53;;;;;;;1.85;0.88;;;12.50;99.90;;;;;;4987312;28;20038;-72
2023/05/01 01:50:21;;;;;;;3.63;1.00;;;12.40;99.90;;;;;;4982369;28;20725;-72
2023/05/01 01:52:50;;;;;;;1.30;0.80;;;12.40;99.90;;;;;;4987322;28;20133;-72
2023/05/01 01:55:20;;;;;;;1.05;0.75;;;12.40;99.90;;;;;;4981583;28;20398;-72
2023/05/01 01:57:47;;;;;;;2.05;1.10;;;12.40;99.90;;;;;;4987411;28;20490;-71
2023/05/01 02:00:15;;;;;;;1.20;0.85;;;12.40;99.90;;;;;;4981774;28;20121;-72
2023/05/01 02:02:43;;;;;;;1.80;1.00;;;12.30;99.90;;;;;;4971171;28;20041;-72
2023/05/01 02:05:14;;;;;;;1.30;0.95;;;12.30;99.90;;;;;;4965891;28;20041;-72
2023/05/01 02:07:42;;;;;;;4.40;1.13;;;12.30;99.90;;;;;;4986921;28;20101;-71
2023/05/01 02:10:13;;;;;;;1.75;0.73;;;12.20;99.90;;;;;;4981650;28;20022;-71
2023/05/01 02:12:41;;;;;;;1.85;1.08;;;12.20;99.90;;;;;;4987108;28;20030;-71
2023/05/01 02:15:09;;;;;;;2.00;1.00;;;12.20;99.90;;;;;;4978861;28;20437;-71
2023/05/01 02:17:36;;;;;;;2.20;0.95;;;12.20;99.90;;;;;;4971143;28;20458;-71
2023/05/01 02:20:04;;;;;;;1.40;0.77;;;12.10;99.90;;;;;;4981552;28;20127;-72
2023/05/01 02:22:31;;;;;;;2.25;1.00;;;12.10;99.90;;;;;;4986885;28;20442;-72
2023/05/01 02:24:59;;;;;;;4.45;1.00;;;12.20;99.90;;;;;;4965047;28;20062;-71
2023/05/01 02:27:37;;;;;;;3.03;0.88;;;12.10;99.90;;;;;;4983683;23;20388;-69
2023/05/01 02:30:04;;;;;;;1.42;1.15;;;11.90;99.90;;;;;;4957939;28;20117;-70
2023/05/01 02:32:30;;;;;;;2.38;1.00;;;11.90;99.90;;;;;;4961398;28;20089;-69
2023/05/01 02:34:56;;;;;;;3.22;1.00;;;11.90;99.90;;;;;;4971449;28;20081;-70
2023/05/01 02:37:22;;;;;;;1.80;1.10;;;12.00;99.90;;;;;;4968427;28;20043;-71
2023/05/01 02:39:48;;;;;;;1.95;1.17;;;12.00;99.90;;;;;;4970666;28;20034;-70
2023/05/01 02:42:16;;;;;;;3.47;1.27;;;12.00;99.90;;;;;;4968474;28;20054;-70
2023/05/01 02:44:55;;;;;;;1.80;1.00;;;12.00;99.90;;;;;;4970695;28;20037;-70
2023/05/01 02:47:23;;;;;;;2.72;1.00;;;12.00;99.90;;;;;;4930375;29;20094;-69
2023/05/01 02:49:50;;;;;;;1.88;1.05;;;12.00;99.90;;;;;;4956688;28;20089;-70
2023/05/01 02:52:18;;;;;;;2.65;1.02;;;12.10;99.90;;;;;;4950261;28;20067;-70
2023/05/01 02:54:45;;;;;;;2.80;1.00;;;12.00;99.90;;;;;;4942640;28;20039;-70
2023/05/01 02:57:11;;;;;;;2.38;1.65;;;12.10;99.90;;;;;;4961672;28;20027;-69
2023/05/01 02:59:37;;;;;;;3.42;0.95;;;12.10;99.90;;;;;;4971624;28;20422;-70
2023/05/01 03:02:03;;;;;;;2.05;1.00;;;12.20;99.90;;;;;;4967689;28;20037;-70
2023/05/01 03:04:29;;;;;;;1.40;1.00;;;12.30;99.90;;;;;;4970124;28;20119;-70
2023/05/01 03:06:55;;;;;;;1.65;0.98;;;12.30;99.90;;;;;;4959348;28;20494;-70
2023/05/01 03:09:21;;;;;;;1.42;0.90;;;12.30;99.90;;;;;;4951066;28;20487;-70
2023/05/01 03:11:47;;;;;;;1.77;1.10;;;12.30;99.90;;;;;;4958576;28;20039;-70
2023/05/01 03:14:13;;;;;;;3.95;0.98;;;12.30;99.90;;;;;;4971074;28;20433;-70
2023/05/01 03:16:39;;;;;;;1.73;0.93;;;12.30;99.90;;;;;;4959473;28;20098;-70
2023/05/01 03:19:06;;;;;;;1.73;1.20;;;12.30;99.90;;;;;;4971230;28;20490;-71
2023/05/01 03:21:32;;;;;;;1.48;0.85;;;12.30;99.90;;;;;;4968787;28;20046;-70
2023/05/01 03:23:58;;;;;;;1.30;0.80;;;12.30;99.90;;;;;;4971238;28;20556;-70
2023/05/01 03:26:25;;;;;;;1.42;0.93;;;12.40;99.90;;;;;;4972281;28;20046;-70
2023/05/01 03:28:50;;;;;;;2.70;1.17;;;12.30;99.90;;;;;;4974923;28;20084;-70
2023/05/01 03:31:16;;;;;;;1.35;1.08;;;12.30;99.90;;;;;;4972675;28;20109;-70
2023/05/01 03:33:42;;;;;;;2.40;1.05;;;12.30;99.90;;;;;;4974579;28;20490;-70
2023/05/01 03:36:10;;;;;;;5.25;1.80;;;12.30;99.90;;;;;;4972272;28;20030;-71
2023/05/01 03:38:36;;;;;;;2.45;1.15;;;12.30;99.90;;;;;;4974642;28;20490;-70
2023/05/01 03:41:04;;;;;;;13.18;1.00;;;12.30;99.90;;;;;;4972531;28;20045;-70
2023/05/01 03:43:30;;;;;;;2.15;1.00;;;12.30;99.90;;;;;;4974372;28;20031;-70
2023/05/01 03:45:56;;;;;;;1.40;0.98;;;12.30;99.90;;;;;;4971052;28;20479;-70
2023/05/01 03:48:23;;;;;;;1.55;1.00;;;12.30;99.90;;;;;;4989442;28;20035;-70
2023/05/01 03:50:50;;;;;;;2.70;1.00;;;12.30;99.90;;;;;;4970908;28;20027;-70
2023/05/01 03:53:16;;;;;;;1.27;1.00;;;12.30;99.90;;;;;;4973107;28;20033;-70
2023/05/01 03:55:42;;;;;;;3.70;1.10;;;12.30;99.90;;;;;;4971012;28;20030;-70
2023/05/01 03:58:09;;;;;;;3.20;1.35;;;12.30;99.90;;;;;;4958645;28;20050;-71
2023/05/01 04:00:36;;;;;;;1.27;0.88;;;12.20;99.90;;;;;;4972435;28;20450;-70
2023/05/01 04:03:03;;;;;;;2.38;1.13;;;12.20;99.90;;;;;;4973316;28;20031;-70
2023/05/01 04:05:29;;;;;;;4.13;1.20;;;12.20;99.90;;;;;;4974171;28;20037;-70
2023/05/01 04:07:56;;;;;;;1.20;0.90;;;12.20;99.90;;;;;;4971601;28;20061;-70
2023/05/01 04:10:22;;;;;;;2.63;1.00;;;12.20;99.90;;;;;;4973146;28;20030;-70
2023/05/01 04:12:48;;;;;;;7.13;1.10;;;12.30;99.90;;;;;;4971196;28;20034;-70
2023/05/01 04:15:14;;;;;;;2.67;1.30;;;12.20;99.90;;;;;;4967609;28;20027;-70
2023/05/01 04:17:42;;;;;;;3.15;1.08;;;12.10;99.90;;;;;;4969306;28;20058;-70
2023/05/01 04:20:09;;;;;;;1.90;1.15;;;12.10;99.90;;;;;;4954572;28;20038;-70
2023/05/01 04:22:35;;;;;;;1.80;1.08;;;12.10;99.90;;;;;;4968400;28;20433;-70
2023/05/01 04:25:01;;;;;;;2.53;1.42;;;12.10;99.90;;;;;;4972481;28;20038;-70
2023/05/01 04:27:27;;;;;;;1.77;1.08;;;12.00;99.90;;;;;;4971511;28;20509;-70
2023/05/01 04:29:53;;;;;;;1.58;1.13;;;12.10;99.90;;;;;;4972689;28;20031;-70
2023/05/01 04:32:18;;;;;;;1.85;1.10;;;12.10;99.90;;;;;;4971630;28;20348;-70
2023/05/01 04:34:44;;;;;;;1.58;1.30;;;12.10;99.90;;;;;;4972592;28;20039;-70
2023/05/01 04:37:10;;;;;;;2.20;1.45;;;12.00;99.90;;;;;;4970961;28;20038;-70
2023/05/01 04:39:36;;;;;;;1.50;1.08;;;12.00;99.90;;;;;;4956591;28;20513;-70
2023/05/01 04:42:03;;;;;;;1.65;1.08;;;12.00;99.90;;;;;;4971121;28;20435;-71
2023/05/01 04:44:29;;;;;;;1.30;1.00;;;12.00;99.90;;;;;;4973603;28;20069;-71
2023/05/01 04:46:55;;;;;;;6.05;1.42;;;12.00;99.90;;;;;;4969395;28;20122;-71
2023/05/01 04:49:21;;;;;;;2.40;1.42;;;12.00;99.90;;;;;;4972364;28;20461;-71
2023/05/01 04:51:47;;;;;;;3.15;0.93;;;12.00;99.90;;;;;;4971020;28;20062;-71
2023/05/01 04:54:13;;;;;;;1.00;0.82;;;12.00;99.90;;;;;;4971915;28;20058;-71
2023/05/01 04:56:39;;;;;;;2.22;0.80;;;12.10;99.90;;;;;;4971051;28;20031;-71
2023/05/01 04:59:04;;;;;;;1.17;0.77;;;12.10;99.90;;;;;;4973610;28;20039;-71
2023/05/01 05:01:30;;;;;;;1.90;1.10;;;12.10;99.90;;;;;;4970930;28;20037;-71
2023/05/01 05:03:56;;;;;;;8.88;1.30;;;12.20;99.90;;;;;;4972957;28;20034;-71
2023/05/01 05:06:22;;;;;;;1.80;1.10;;;12.20;99.90;;;;;;4965672;28;20042;-71
2023/05/01 05:08:50;;;;;;;2.83;1.38;;;12.20;99.90;;;;;;4950686;28;20016;-70
2023/05/01 05:11:17;;;;;;;5.55;1.67;;;12.20;99.90;;;;;;4948392;28;20033;-71
2023/05/01 05:13:44;;;;;;;2.10;1.05;;;12.10;99.90;;;;;;4950184;28;20054;-71
2023/05/01 05:16:11;;;;;;;2.15;1.30;;;12.10;99.90;;;;;;4948512;28;20031;-73
2023/05/01 05:18:37;;;;;;;3.40;1.75;;;12.10;99.90;;;;;;4943726;29;20053;-71
2023/05/01 05:21:07;;;;;;;4.50;1.50;;;12.20;99.90;;;;;;4946548;28;20558;-70
2023/05/01 05:23:33;;;;;;;2.50;1.23;;;12.20;99.90;;;;;;4966322;28;20102;-71
2023/05/01 05:26:00;;;;;;;2.35;1.45;;;12.20;99.90;;;;;;4944540;28;20119;-71
2023/05/01 05:28:29;;;;;;;1.98;1.00;;;12.20;99.90;;;;;;4964057;28;20043;-70
2023/05/01 05:30:56;;;;;;;4.53;1.50;;;12.30;99.90;;;;;;4970301;28;20019;-70
2023/05/01 05:33:23;;;;;;;3.28;1.58;;;12.30;99.90;;;;;;4972309;28;20022;-72
2023/05/01 05:35:52;;;;;;;2.08;1.30;;;12.30;99.90;;;;;;4969768;28;20050;-71
2023/05/01 05:38:19;;;;;;;3.20;1.52;;;12.40;99.90;;;;;;4971677;28;20070;-71
2023/05/01 05:40:45;;;;;;;3.08;1.60;;;12.40;99.90;;;;;;4969996;28;20039;-71
2023/05/01 05:43:10;;;;;;;1.45;1.00;;;12.40;99.90;;;;;;4971040;28;20027;-71
2023/05/01 05:45:36;;;;;;;1.80;1.13;;;12.50;99.90;;;;;;4969903;28;20045;-72
2023/05/01 05:48:03;;;;;;;3.42;1.40;;;12.50;99.90;;;;;;4970761;28;20446;-70
2023/05/01 05:50:29;;;;;;;3.67;1.95;;;12.60;99.90;;;;;;4958078;28;20035;-72
2023/05/01 05:52:55;;;;;;;2.55;1.13;;;12.60;99.90;;;;;;4969361;28;20113;-71
2023/05/01 05:55:20;;;;;;;2.05;1.27;;;12.60;99.90;;;;;;4972031;28;20045;-71
2023/05/01 05:57:46;;;;;;;5.97;1.50;;;12.60;99.90;;;;;;4968415;28;20039;-70
2023/05/01 06:00:13;;;;;;;3.25;1.83;;;12.70;99.90;;;;;;4970774;28;20042;-71
2023/05/01 06:02:39;;;;;;;4.88;1.65;;;12.70;99.90;;;;;;4957697;28;20026;-70
2023/05/01 06:05:05;;;;;;;4.15;1.38;;;12.80;99.90;;;;;;4971741;28;20043;-71
2023/05/01 06:07:31;;;;;;;3.08;1.55;;;12.80;99.90;;;;;;4969716;28;20066;-71
2023/05/01 06:10:03;;;;;;;2.42;1.27;;;12.90;99.90;;;;;;4972185;28;20505;-70
2023/05/01 06:12:30;;;;;;;2.30;1.33;;;13.00;99.90;;;;;;4963649;28;20035;-71
2023/05/01 06:14:56;;;;;;;2.17;1.25;;;13.20;99.90;;;;;;4944645;28;20039;-70
2023/05/01 06:17:23;;;;;;;3.30;1.20;;;13.20;99.90;;;;;;4954744;28;20035;-70
2023/05/01 06:19:51;;;;;;;1.80;1.35;;;13.30;99.90;;;;;;4951484;28;20039;-70
2023/05/01 06:22:18;;;;;;;3.88;1.63;;;13.30;99.90;;;;;;4953239;28;20051;-72
2023/05/01 06:24:44;;;;;;;4.25;1.85;;;13.40;99.90;;;;;;4957145;28;20583;-73
2023/05/01 06:27:10;;;;;;;4.30;1.08;;;13.50;99.90;;;;;;4950121;28;20122;-71
2023/05/01 06:29:36;;;;;;;3.67;1.58;;;13.60;99.90;;;;;;4968387;28;20027;-70
2023/05/01 06:32:02;;;;;;;14.23;1.77;;;13.70;99.90;;;;;;4970257;28;20046;-72
2023/05/01 06:34:29;;;;;;;2.53;1.35;;;13.80;99.90;;;;;;4970485;28;20031;-70
2023/05/01 06:36:55;;;;;;;1.90;1.00;;;13.80;99.90;;;;;;4969266;28;20034;-70
2023/05/01 06:39:20;;;;;;;4.68;1.40;;;13.90;99.90;;;;;;4972252;28;20115;-71
2023/05/01 06:41:47;;;;;;;2.88;1.42;;;14.10;99.90;;;;;;4957578;28;20481;-72
2023/05/01 06:44:13;;;;;;;1.55;0.90;;;14.20;99.90;;;;;;4951192;28;20031;-73
2023/05/01 06:46:39;;;;;;;2.35;1.40;;;14.20;99.90;;;;;;4943625;28;20118;-70
2023/05/01 06:49:05;;;;;;;2.72;1.02;;;14.20;99.90;;;;;;4969646;28;20106;-70
2023/05/01 06:51:31;;;;;;;7.03;1.52;;;14.30;99.90;;;;;;4956668;28;20031;-70
2023/05/01 06:53:57;;;;;;;2.90;1.42;;;14.20;99.90;;;;;;4959589;28;20031;-70
2023/05/01 06:56:23;;;;;;;1.50;0.95;;;14.20;99.90;;;;;;4954627;28;20455;-70
2023/05/01 06:58:48;;;;;;;2.45;1.30;;;14.20;99.90;;;;;;4962250;28;20686;-70
2023/05/01 07:01:15;;;;;;;2.15;1.20;;;14.30;99.90;;;;;;4961634;28;20035;-68
2023/05/01 07:03:41;;;;;;;3.13;1.20;;;14.40;99.90;;;;;;4962722;28;20035;-70
2023/05/01 07:06:07;;;;;;;2.20;1.40;;;14.50;99.90;;;;;;4947710;28;20035;-70
2023/05/01 07:08:32;;;;;;;4.55;2.03;;;14.60;99.90;;;;;;4961813;28;20541;-72
2023/05/01 07:10:58;;;;;;;8.27;1.65;;;14.70;99.90;;;;;;4956768;28;20035;-73
2023/05/01 07:13:24;;;;;;;2.45;1.48;;;14.60;99.90;;;;;;4957901;28;20114;-71
2023/05/01 07:15:50;;;;;;;7.60;1.45;;;14.60;99.90;;;;;;4959347;28;20027;-72
2023/05/01 07:18:16;;;;;;;3.03;1.50;;;14.60;99.90;;;;;;4968529;28;20031;-71
2023/05/01 07:20:42;;;;;;;2.55;1.17;;;14.50;99.90;;;;;;4965469;28;20049;-73
2023/05/01 07:23:08;;;;;;;2.03;1.20;;;14.60;99.90;;;;;;4935344;28;20043;-73
2023/05/01 07:25:36;;;;;;;3.42;1.50;;;14.70;99.90;;;;;;4945540;28;20039;-73
2023/05/01 07:28:06;;;;;;;3.70;1.73;;;14.70;99.90;;;;;;4945164;28;20045;-74
2023/05/01 07:30:34;;;;;;;2.88;1.50;;;14.80;99.90;;;;;;4959639;28;20106;-73
2023/05/01 07:33:01;;;;;;;2.35;1.42;;;14.70;99.90;;;;;;4956119;28;20063;-73
2023/05/01 07:35:27;;;;;;;3.13;1.35;;;14.80;99.90;;;;;;4950577;28;20054;-72
2023/05/01 07:37:53;;;;;;;2.60;1.40;;;15.10;99.90;;;;;;4940430;28;20043;-74
2023/05/01 07:40:20;;;;;;;2.55;1.48;;;15.30;99.90;;;;;;4974672;28;20031;-73
2023/05/01 07:42:45;;;;;;;2.13;1.35;;;15.30;99.90;;;;;;4968212;28;20535;-73
2023/05/01 07:45:11;;;;;;;2.72;1.20;;;15.20;99.90;;;;;;4974559;28;20042;-71
2023/05/01 07:47:37;;;;;;;8.20;1.67;;;15.30;99.90;;;;;;4967708;28;20122;-69
2023/05/01 07:50:03;;;;;;;2.42;1.42;;;15.50;99.90;;;;;;4959976;28;20029;-72
2023/05/01 07:52:29;;;;;;;2.55;1.73;;;15.40;99.90;;;;;;4971249;28;20023;-73
2023/05/01 07:54:55;;;;;;;2.97;1.48;;;15.50;99.90;;;;;;4970903;28;20034;-75
2023/05/01 07:57:22;;;;;;;2.90;1.70;;;15.50;99.90;;;;;;4971974;28;20041;-73
2023/05/01 07:59:52;;;;;;;3.38;1.52;;;15.20;99.90;;;;;;4969308;28;20147;-70
2023/05/01 08:02:17;;;;;;;7.75;3.25;;;15.00;99.90;;;;;;4972597;28;20177;-69
2023/05/01 08:04:44;;;;;;;3.55;1.92;;;15.00;99.90;;;;;;4968171;28;20552;-70
2023/05/01 08:07:10;;;;;;;2.85;1.80;;;15.30;99.90;;;;;;4964359;28;20493;-71
2023/05/01 08:09:36;;;;;;;3.28;1.75;;;15.50;99.90;;;;;;4953989;28;20043;-72
2023/05/01 08:12:02;;;;;;;5.03;2.35;;;15.40;99.90;;;;;;4961842;28;20094;-74
2023/05/01 08:14:28;;;;;;;3.78;1.77;;;14.80;99.90;;;;;;4953798;28;20118;-71
2023/05/01 08:16:54;;;;;;;3.17;1.92;;;14.60;99.90;;;;;;4962112;28;20042;-73
2023/05/01 08:19:20;;;;;;;5.03;1.95;;;14.90;99.90;;;;;;4951835;28;20393;-70
2023/05/01 08:21:46;;;;;;;3.13;1.65;;;15.20;99.90;;;;;;4963836;28;20031;-71
2023/05/01 08:24:12;;;;;;;3.25;1.90;;;15.40;99.90;;;;;;4958211;28;20042;-71
2023/05/01 08:26:38;;;;;;;3.70;1.70;;;15.40;99.90;;;;;;4976063;23;20093;-73
2023/05/01 08:29:03;;;;;;;2.50;1.70;;;15.70;99.90;;;;;;4976923;28;20466;-73
2023/05/01 08:31:29;;;;;;;3.40;2.22;;;15.90;99.90;;;;;;4975593;28;20035;-73
2023/05/01 08:33:55;;;;;;;3.47;2.15;;;15.90;99.90;;;;;;4979090;28;20532;-73
2023/05/01 08:36:21;;;;;;;4.05;1.85;;;16.00;99.90;;;;;;4977693;28;20446;-73
2023/05/01 08:38:47;;;;;;;3.35;1.80;;;15.90;99.90;;;;;;4976933;28;20027;-74
2023/05/01 08:41:22;;;;;;;3.92;2.13;;;15.80;99.90;;;;;;4979590;28;20102;-74
2023/05/01 08:43:48;;;;;;;3.22;1.77;;;15.90;99.90;;;;;;4981046;28;20034;-74
2023/05/01 08:47:02;;;;;;;3.10;1.98;;;15.50;99.90;;;;;;4966303;28;20023;-74
2023/05/01 08:49:33;;;;;;;3.05;1.52;;;15.60;99.90;;;;;;4958650;28;20034;-75
2023/05/01 08:52:02;;;;;;;7.22;2.08;;;15.90;99.90;;;;;;4970910;28;20117;-74
2023/05/01 08:54:30;;;;;;;3.53;2.30;;;15.80;99.90;;;;;;4971771;28;20061;-74
2023/05/01 08:57:03;;;;;;;10.32;2.42;;;15.60;99.90;;;;;;4972382;28;20043;-74
2023/05/01 08:59:34;;;;;;;4.13;2.03;;;16.00;99.90;;;;;;4968900;28;20031;-75
2023/05/01 09:02:05;;;;;;;4.15;1.80;;;16.30;99.90;;;;;;4982681;28;20031;-73
2023/05/01 09:04:39;;;;;;;3.20;2.20;;;16.50;99.90;;;;;;4971750;28;20062;-72
2023/05/01 09:07:06;;;;;;;2.95;1.75;;;16.70;99.90;;;;;;4968864;28;20128;-73
2023/05/01 09:09:33;;;;;;;5.30;1.75;;;16.80;99.90;;;;;;4972431;28;20039;-74
2023/05/01 09:12:25;;;;;;;6.50;1.85;;;16.90;99.90;;;;;;4979403;28;20031;-74
2023/05/01 09:14:55;;;;;;;7.10;2.08;;;17.00;99.90;;;;;;4972684;28;20034;-74
2023/05/01 09:17:23;;;;;;;3.90;2.00;;;17.00;99.70;;;;;;4965047;28;20121;-76
2023/05/01 09:19:50;;;;;;;5.68;1.70;;;16.40;99.90;;;;;;4980958;28;20026;-75
2023/05/01 09:22:17;;;;;;;4.25;2.00;;;16.10;99.90;;;;;;4976028;28;20057;-76
2023/05/01 09:24:44;;;;;;;6.55;2.05;;;15.80;99.90;;;;;;4983266;28;20049;-76
2023/05/01 09:27:12;;;;;;;5.53;2.00;;;15.80;99.90;;;;;;4980103;28;20070;-76
2023/05/01 09:29:48;;;;;;;13.88;6.05;;;15.90;99.90;;;;;;4990651;28;20030;-76
2023/05/01 09:32:28;;;;;;;6.18;3.08;;;16.30;99.90;;;;;;4978374;28;20031;-75
2023/05/01 09:35:12;;;;;;;3.30;2.03;;;16.40;99.90;;;;;;4985736;28;20037;-76
2023/05/01 09:37:38;;;;;;;1.92;1.30;;;16.50;99.90;;;;;;4973602;28;20038;-76
2023/05/01 09:40:04;;;;;;;3.28;1.90;;;16.60;99.90;;;;;;4974371;28;20419;-77
2023/05/01 09:42:31;;;;;;;4.18;1.52;;;16.90;99.90;;;;;;4968011;28;20039;-76
2023/05/01 09:44:59;;;;;;;6.10;1.75;;;16.90;99.90;;;;;;4968376;28;20049;-76
2023/05/01 09:47:28;;;;;;;4.93;2.08;;;16.60;99.90;;;;;;4967182;28;20110;-75
2023/05/01 09:49:56;;;;;;;6.05;2.85;;;16.30;99.90;;;;;;4970292;28;20022;-75
2023/05/01 09:52:29;;;;;;;6.57;2.10;;;16.50;99.90;;;;;;4959849;28;20074;-75
2023/05/01 09:55:14;;;;;;;3.78;1.70;;;16.40;99.90;;;;;;4986387;28;20027;-75
2023/05/01 09:57:41;;;;;;;6.03;2.30;;;16.80;99.90;;;;;;4973168;28;20041;-75
2023/05/01 10:00:09;;;;;;;3.78;1.70;;;16.40;99.50;;;;;;4940738;28;20031;-76
2023/05/01 10:02:35;;;;;;;4.10;2.05;;;16.70;99.90;;;;;;4977054;28;20031;-76
2023/05/01 10:05:02;;;;;;;5.80;1.92;;;16.90;99.90;;;;;;4984512;28;20039;-76
2023/05/01 10:07:28;;;;;;;6.75;2.25;;;17.40;99.90;;;;;;4975411;28;20035;-76
2023/05/01 10:09:54;;;;;;;2.53;1.80;;;17.40;99.40;;;;;;4981046;28;20046;-76
2023/05/01 10:12:25;;;;;;;5.07;2.20;;;17.50;98.40;;;;;;4961452;28;20027;-76
2023/05/01 10:15:00;;;;;;;6.38;1.88;;;17.60;99.90;;;;;;4970481;28;20560;-75
2023/05/01 10:17:26;;;;;;;4.30;1.80;;;17.70;98.00;;;;;;4982433;28;20073;-78
2023/05/01 10:19:51;;;;;;;2.65;1.73;;;17.20;98.20;;;;;;4961901;28;20062;-76
2023/05/01 10:22:17;;;;;;;3.67;1.70;;;17.20;98.40;;;;;;4962601;28;20405;-75
2023/05/01 10:24:44;;;;;;;4.43;1.80;;;17.50;98.40;;;;;;4961712;28;20031;-76
2023/05/01 10:27:12;;;;;;;2.92;1.42;;;17.90;97.60;;;;;;4958058;28;20114;-76
2023/05/01 10:29:40;;;;;;;3.92;1.98;;;17.80;99.00;;;;;;4989266;28;20031;-75
2023/05/01 10:32:07;;;;;;;3.55;2.15;;;17.70;98.30;;;;;;4974400;28;20053;-76
2023/05/01 10:34:43;;;;;;;5.80;2.30;;;17.90;98.10;;;;;;4989101;28;20030;-75
2023/05/01 10:37:17;;;;;;;4.75;2.40;;;17.90;98.20;;;;;;4975428;28;20096;-75
2023/05/01 10:39:42;;;;;;;3.80;2.03;;;18.20;96.90;;;;;;4989550;28;20047;-76
2023/05/01 10:42:12;;;;;;;10.25;4.82;;;18.30;96.80;;;;;;4976242;28;20100;-76
2023/05/01 10:44:40;;;;;;;5.03;3.08;;;18.90;96.00;;;;;;4991195;28;20038;-76
2023/05/01 10:47:24;;;;;;;4.30;2.22;;;18.50;96.50;;;;;;4975291;28;20106;-74
2023/05/01 10:50:22;;;;;;;4.13;2.15;;;18.20;97.70;;;;;;4982516;28;20110;-74
2023/05/01 10:53:10;;;;;;;3.75;2.17;;;18.30;98.00;;;;;;4970776;28;20069;-74
2023/05/01 10:55:38;;;;;;;6.20;2.53;;;18.30;96.40;;;;;;4985378;28;20124;-74
2023/05/01 10:58:04;;;;;;;3.72;2.00;;;18.70;95.80;;;;;;4976968;28;20054;-74
2023/05/01 11:00:31;;;;;;;4.22;1.90;;;18.50;95.30;;;;;;4991281;28;20124;-74
2023/05/01 11:03:21;;;;;;;2.03;1.50;;;18.60;95.30;;;;;;4975099;28;20287;-74
2023/05/01 11:06:01;;;;;;;4.60;1.67;;;18.60;95.40;;;;;;4953411;28;20054;-74
2023/05/01 11:08:37;;;;;;;2.65;1.60;;;18.70;95.10;;;;;;4960447;28;20039;-77
2023/05/01 11:11:18;;;;;;;2.85;1.60;;;19.20;94.50;;;;;;4982207;28;20042;-77
2023/05/01 11:13:56;;;;;;;;;;;18.90;94.80;;;;;;4968517;28;20372;-76
2023/05/01 11:16:38;;;;;;;2.80;1.25;;;18.70;94.00;;;;;;4982482;28;20301;-77
2023/05/01 11:19:19;;;;;;;2.88;1.65;;;19.40;94.60;;;;;;4975174;28;20128;-74
2023/05/01 11:21:45;;;;;;;2.90;1.88;;;19.30;95.40;;;;;;4964460;28;20031;-74
2023/05/01 11:24:11;;;;;;;5.65;1.58;;;19.90;95.50;;;;;;4983970;28;20042;-73
2023/05/01 11:26:40;;;;;;;3.13;1.63;;;20.20;94.70;;;;;;4975868;28;20043;-70
2023/05/01 11:29:09;;;;;;;4.80;1.77;;;19.50;93.60;;;;;;4989007;28;20394;-71
2023/05/01 11:31:35;;;;;;;6.60;1.73;;;19.20;94.00;;;;;;4959474;28;20122;-72
2023/05/01 11:34:01;;;;;;;3.03;1.60;;;20.00;94.40;;;;;;4992534;28;20041;-71
2023/05/01 11:36:29;;;;;;;4.40;2.00;;;19.50;94.30;;;;;;4965381;28;20483;-73
2023/05/01 11:38:58;;;;;;;2.83;1.65;;;19.90;93.10;;;;;;4968917;28;20034;-78
2023/05/01 11:41:25;;;;;;;2.35;1.40;;;20.40;92.60;;;;;;4980100;28;20027;-75
2023/05/01 11:43:55;;;;;;;2.65;1.45;;;19.80;93.70;;;;;;4976702;28;20402;-75
2023/05/01 11:46:28;;;;;;;1.83;1.15;;;20.40;93.30;;;;;;4984525;28;20635;-75
2023/05/01 11:48:55;;;;;;;4.45;1.63;;;20.60;92.90;;;;;;4990012;28;20081;-76
2023/05/01 11:51:23;;;;;;;3.83;2.05;;;20.60;91.90;;;;;;4969324;28;20038;-74
2023/05/01 11:54:10;;;;;;;2.90;1.70;;;20.20;92.70;;;;;;5003734;28;20029;-76
2023/05/01 11:56:37;;;;;;;2.83;1.73;;;20.70;92.00;;;;;;4980670;28;20035;-70
2023/05/01 11:59:15;;;;;;;4.53;1.75;;;20.60;92.00;;;;;;5007425;28;20030;-73
2023/05/01 12:01:46;;;;;;;4.47;1.60;;;21.20;91.60;;;;;;4978937;28;20028;-75
2023/05/01 12:04:21;;;;;;;2.17;1.42;;;19.50;91.30;;;;;;4979030;28;20038;-79
2023/05/01 12:06:47;;;;;;;2.45;1.45;;;19.90;92.80;;;;;;4979060;28;20170;-78
2023/05/01 12:09:25;;;;;;;2.40;1.70;;;20.60;92.40;;;;;;4970204;28;20117;-78
2023/05/01 12:11:53;;;;;;;2.15;1.30;;;21.20;91.30;;;;;;4980208;28;20487;-74
2023/05/01 12:14:23;;;;;;;2.95;1.65;;;20.20;91.80;;;;;;4994782;28;20018;-73
2023/05/01 12:16:49;;;;;;;3.15;1.40;;;19.60;92.60;;;;;;4979149;28;20062;-75
2023/05/01 12:19:16;;;;;;;3.50;1.65;;;20.20;92.30;;;;;;4989264;28;20031;-77
2023/05/01 12:21:42;;;;;;;6.75;1.40;;;20.20;92.20;;;;;;4966021;28;20562;-77
2023/05/01 12:24:12;;;;;;;3.53;1.75;;;19.80;91.90;;;;;;5008577;28;20138;-75
2023/05/01 12:26:38;;;;;;;3.10;1.50;;;20.00;92.10;;;;;;4980376;28;20416;-76
2023/05/01 12:29:07;;;;;;;3.17;1.60;;;20.00;92.50;;;;;;4992350;28;20026;-75
2023/05/01 12:31:34;;;;;;;2.40;1.38;;;19.90;91.90;;;;;;4980585;28;20038;-75
2023/05/01 12:34:06;;;;;;;2.13;1.33;;;20.00;92.50;;;;;;4990159;28;20026;-76
2023/05/01 12:36:34;;;;;;;3.42;1.80;;;19.90;90.80;;;;;;4970706;28;20046;-74
2023/05/01 12:39:03;;;;;;;3.65;1.60;;;20.00;92.30;;;;;;4984450;28;20042;-78
2023/05/01 12:41:43;;;;;;;3.88;1.45;;;20.20;91.80;;;;;;4967640;28;20055;-82
2023/05/01 12:44:24;;;;;;;3.33;1.42;;;20.20;90.80;;;;;;4984501;28;20113;-77
2023/05/01 12:46:58;;;;;;;3.80;2.20;;;20.60;90.80;;;;;;4966640;28;20036;-77
2023/05/01 12:49:26;;;;;;;2.22;1.20;;;20.20;91.70;;;;;;4982053;28;20023;-77
2023/05/01 12:51:56;;;;;;;2.08;1.38;;;20.10;91.90;;;;;;4968739;28;20081;-78
2023/05/01 12:54:42;;;;;;;3.88;1.33;;;20.80;91.50;;;;;;4988014;28;20082;-78
2023/05/01 12:57:15;;;;;;;3.55;1.60;;;21.10;91.10;;;;;;4977764;28;20034;-75